createdAt,value
2022-10-11T00:02:01.150Z,90.63716
2022-10-11T00:12:02.811Z,90.6941
2022-10-11T00:22:04.542Z,90.63643
2022-10-11T00:32:06.235Z,90.56816
2022-10-11T00:42:07.915Z,90.97111
2022-10-11T00:52:09.634Z,91.13939
2022-10-11T01:02:11.188Z,91.11109
2022-10-11T01:12:12.385Z,91.36023
2022-10-11T01:22:13.494Z,91.95731
2022-10-11T01:32:14.583Z,91.83974
2022-10-11T01:42:15.688Z,91.90558
2022-10-11T01:52:16.971Z,92.41448
2022-10-11T02:02:18.092Z,92.68606
2022-10-11T02:12:19.256Z,92.42442
2022-10-11T02:22:20.592Z,92.16513
2022-10-11T02:32:21.711Z,92.49132
2022-10-11T02:42:22.827Z,92.56265
2022-10-11T02:52:23.906Z,92.79465
2022-10-11T03:02:25.019Z,93.10621
2022-10-11T03:12:26.152Z,93.65208
2022-10-11T03:22:27.269Z,93.80757
2022-10-11T03:32:28.381Z,94.00227
2022-10-11T03:42:29.513Z,94.07366
2022-10-11T03:52:30.841Z,94.20756
2022-10-11T04:02:35.723Z,94.37474
2022-10-11T04:12:39.745Z,94.62196
2022-10-11T04:22:41.127Z,94.96399
2022-10-11T04:32:42.271Z,95.15117
2022-10-11T04:42:43.355Z,95.39105
2022-10-11T04:52:44.473Z,95.57499
2022-10-11T05:02:45.570Z,95.97324
2022-10-11T05:12:46.704Z,96.33513
2022-10-11T05:22:47.816Z,96.50486
2022-10-11T05:32:48.940Z,96.66134
2022-10-11T05:42:50.091Z,96.73426
2022-10-11T05:52:51.419Z,96.81783
2022-10-11T06:02:52.539Z,96.90178
2022-10-11T06:12:53.725Z,96.94504
2022-10-11T06:22:54.887Z,96.97342
2022-10-11T06:32:56.080Z,96.93842
2022-10-11T06:42:57.393Z,96.97401
2022-10-11T06:52:58.573Z,96.90282
2022-10-11T07:02:59.782Z,96.87479
2022-10-11T07:13:01.111Z,96.90285
2022-10-11T07:23:02.860Z,96.92382
2022-10-11T07:33:04.577Z,96.78724
2022-10-11T07:43:06.369Z,96.73966
2022-10-11T07:53:08.039Z,96.54937
2022-10-11T08:03:09.744Z,96.0852
2022-10-11T08:13:11.394Z,95.14138
2022-10-11T08:23:12.530Z,93.59639
2022-10-11T08:33:13.687Z,92.13939
2022-10-11T08:43:14.810Z,90.8397
2022-10-11T08:53:15.928Z,90.09271
2022-10-11T09:03:17.070Z,89.09512
2022-10-11T09:13:18.193Z,88.22858
2022-10-11T09:23:19.326Z,87.1456
2022-10-11T09:33:20.786Z,86.1698
2022-10-11T09:43:21.937Z,85.80569
2022-10-11T09:53:23.106Z,85.09986
2022-10-11T10:03:24.240Z,82.77559
2022-10-11T10:13:25.433Z,81.95251
2022-10-11T10:23:26.584Z,80.433
2022-10-11T10:33:27.760Z,80.72783
2022-10-11T10:43:28.951Z,79.36391
2022-10-11T10:53:30.143Z,79.44173
2022-10-11T11:03:31.461Z,79.66316
2022-10-11T11:13:32.590Z,77.63951
2022-10-11T11:23:33.730Z,77.01071
2022-10-11T11:33:34.849Z,74.51263
2022-10-11T11:43:35.946Z,72.65858
2022-10-11T11:53:37.094Z,73.50491
2022-10-11T12:03:41.563Z,70.64521
2022-10-11T12:13:43.121Z,70.67722
2022-10-11T12:23:44.240Z,71.15045
2022-10-11T12:33:45.386Z,70.94307
2022-10-11T12:43:46.529Z,70.26269
2022-10-11T12:53:57.693Z,69.28835
2022-10-11T13:04:15.728Z,71.58907
2022-10-11T13:14:16.851Z,69.68116
2022-10-11T13:24:18.071Z,68.94365
2022-10-11T13:34:23.218Z,70.25507
2022-10-11T13:44:24.651Z,70.923
2022-10-11T13:54:25.769Z,66.28013
2022-10-11T14:04:29.818Z,65.87188
2022-10-11T14:14:31.461Z,66.51815
2022-10-11T14:24:32.572Z,68.02261
2022-10-11T14:34:33.709Z,67.85784
2022-10-11T14:44:34.882Z,67.9024
2022-10-11T14:54:36.033Z,69.28327
2022-10-11T15:04:37.176Z,70.46872
2022-10-11T15:14:38.324Z,69.9934
2022-10-11T15:24:39.450Z,70.67128
2022-10-11T15:34:40.805Z,67.62916
2022-10-11T15:44:41.974Z,67.87067
2022-10-11T15:54:43.077Z,69.46682
2022-10-11T16:04:44.252Z,70.4058
2022-10-11T16:14:47.313Z,71.83735
2022-10-11T16:24:48.743Z,72.49965
2022-10-11T16:34:49.892Z,71.83891
2022-10-11T16:44:51.270Z,71.43668
2022-10-11T16:54:52.479Z,72.48195
2022-10-11T17:04:53.845Z,73.44854
2022-10-11T17:14:54.982Z,74.5653
2022-10-11T17:24:56.147Z,75.6951
2022-10-11T17:34:57.288Z,76.59355
2022-10-11T17:44:58.425Z,77.08063
2022-10-11T17:54:59.601Z,76.88953
2022-10-11T18:05:00.916Z,77.17736
2022-10-11T18:15:02.557Z,75.67361
2022-10-11T18:25:04.220Z,75.34929
2022-10-11T18:35:05.887Z,75.81589
2022-10-11T18:45:07.505Z,76.42029
2022-10-11T18:55:09.177Z,77.51633
2022-10-11T19:05:10.798Z,78.10079
2022-10-11T19:15:11.992Z,78.6367
2022-10-11T19:25:13.200Z,79.46538
2022-10-11T19:35:19.677Z,82.14046
2022-10-11T19:45:21.356Z,83.17152
2022-10-11T19:55:22.699Z,83.34406
2022-10-11T20:05:23.819Z,82.8093
2022-10-11T20:15:24.964Z,82.6062
2022-10-11T20:25:26.039Z,82.0966
2022-10-11T20:35:27.176Z,82.97013
2022-10-11T20:45:28.296Z,82.74512
2022-10-11T20:55:29.425Z,82.80012
2022-10-11T21:05:30.764Z,83.61546
2022-10-11T21:15:31.942Z,84.5213
2022-10-11T21:25:33.080Z,84.73302
2022-10-11T21:35:34.239Z,85.52963
2022-10-11T21:45:35.397Z,85.47553
2022-10-11T21:55:36.517Z,85.72629
2022-10-11T22:05:37.669Z,85.21371
2022-10-11T22:15:38.799Z,83.96294
2022-10-11T22:25:40.067Z,85.85443
2022-10-11T22:35:41.430Z,86.53846
2022-10-11T22:45:42.592Z,86.29497
2022-10-11T22:55:43.751Z,84.66771
2022-10-11T23:05:44.986Z,84.18863
2022-10-11T23:15:46.098Z,85.42703
2022-10-11T23:25:47.314Z,84.95435
2022-10-11T23:35:48.490Z,85.213
2022-10-11T23:45:49.578Z,86.00314
2022-10-11T23:55:50.970Z,85.92066
